Time;durP1;ratioP1;P1;durP2;ratioP2;P2;SDS_P1;SDS_P2;PMS_P1;PMS_P2;Temp;Humidity;BMP_temperature;BMP_pressure;BME280_temperature;BME280_humidity;BME280_pressure;Samples;Min_cycle;Max_cycle;Signal;HPM_P1;HPM_P2
2022/09/27 00:01:03;;;;;;;1.30;0.50;;;;;;;12.07;87.85;98615.38;5052556;28;21319;-73
2022/09/27 00:03:29;;;;;;;1.73;1.08;;;;;;;12.07;87.99;98613.47;5051337;28;20409;-73
2022/09/27 00:06:18;;;;;;;0.63;0.63;;;;;;;11.99;87.84;98616.06;5051517;28;20718;-73
2022/09/27 00:08:43;;;;;;;2.63;0.80;;;;;;;11.97;88.44;98621.78;5051425;28;20392;-74
2022/09/27 00:11:25;;;;;;;3.30;0.87;;;;;;;11.99;88.67;98625.00;5051709;28;20390;-73
2022/09/27 00:13:52;;;;;;;3.80;0.63;;;;;;;12.01;88.96;98622.81;5050231;28;20485;-73
2022/09/27 00:16:17;;;;;;;0.77;0.60;;;;;;;12.01;88.71;98622.81;5060135;28;20383;-73
2022/09/27 00:18:42;;;;;;;7.10;1.50;;;;;;;12.01;89.08;98617.38;5052228;28;20781;-74
2022/09/27 00:21:10;;;;;;;1.60;0.70;;;;;;;12.04;88.86;98608.63;5050282;28;20393;-74
2022/09/27 00:23:36;;;;;;;1.83;0.80;;;;;;;12.06;88.52;98617.28;5051342;28;20741;-73
2022/09/27 00:26:03;;;;;;;0.90;0.90;;;;;;;12.05;88.88;98609.44;5049135;28;20390;-73
2022/09/27 00:28:28;;;;;;;0.77;0.77;;;;;;;12.06;88.73;98609.13;5049641;28;20862;-73
2022/09/27 00:30:53;;;;;;;2.87;0.80;;;;;;;12.08;88.86;98600.69;5033605;28;20412;-73
2022/09/27 00:33:19;;;;;;;0.70;0.70;;;;;;;12.07;88.79;98609.94;5051034;28;20385;-74
2022/09/27 00:35:45;;;;;;;0.60;0.60;;;;;;;12.08;88.90;98614.28;5051245;28;20393;-73
2022/09/27 00:38:11;;;;;;;1.95;0.80;;;;;;;12.04;88.76;98605.91;5051184;28;20480;-73
2022/09/27 00:40:37;;;;;;;0.70;0.60;;;;;;;12.08;89.06;98606.13;5051232;28;20413;-73
2022/09/27 00:43:02;;;;;;;0.83;0.53;;;;;;;12.11;88.80;98595.47;5051191;28;20396;-73
2022/09/27 00:45:27;;;;;;;1.13;0.68;;;;;;;12.10;88.82;98599.28;5051304;28;20754;-73
2022/09/27 00:48:00;;;;;;;1.60;0.80;;;;;;;12.10;88.97;98603.91;5051028;28;20389;-73
2022/09/27 00:50:36;;;;;;;1.90;0.90;;;;;;;12.05;88.60;98599.41;5050816;28;20437;-73
2022/09/27 00:53:11;;;;;;;0.98;0.70;;;;;;;12.05;88.81;98599.41;5054627;28;20878;-73
2022/09/27 00:55:43;;;;;;;0.50;0.50;;;;;;;12.04;88.84;98600.50;5055001;28;20389;-73
2022/09/27 00:58:11;;;;;;;0.70;0.70;;;;;;;12.10;88.64;98593.03;5047315;28;20389;-74
2022/09/27 01:00:41;;;;;;;0.90;0.60;;;;;;;12.12;88.71;98599.78;5054850;28;20421;-73
2022/09/27 01:03:10;;;;;;;3.40;1.00;;;;;;;12.12;88.38;98607.16;5054710;28;20510;-73
2022/09/27 01:05:35;;;;;;;2.47;0.83;;;;;;;12.08;88.54;98623.22;5054764;28;20484;-73
2022/09/27 01:08:01;;;;;;;1.80;0.50;;;;;;;12.07;89.23;98612.66;5065107;28;20928;-73
2022/09/27 01:10:33;;;;;;;1.85;0.70;;;;;;;12.04;88.95;98622.22;5054700;28;20405;-73
2022/09/27 01:13:05;;;;;;;0.73;0.73;;;;;;;12.07;89.09;98623.50;5054585;28;20386;-74
2022/09/27 01:15:40;;;;;;;1.40;0.90;;;;;;;12.06;89.33;98624.63;5054613;28;20389;-73
2022/09/27 01:18:32;;;;;;;1.05;0.63;;;;;;;12.07;89.28;98629.75;5052033;28;20747;-74
2022/09/27 01:20:57;;;;;;;2.63;0.75;;;;;;;12.02;89.09;98629.81;5047779;28;20495;-73
2022/09/27 01:23:56;;;;;;;1.37;0.50;;;;;;;12.07;88.85;98629.75;5054386;28;20432;-73
2022/09/27 01:26:50;;;;;;;1.25;0.60;;;;;;;12.00;88.26;98626.63;5054486;28;20469;-73
2022/09/27 01:29:59;;;;;;;1.35;0.60;;;;;;;11.96;88.51;98631.03;5046057;28;20441;-73
2022/09/27 01:32:48;;;;;;;1.83;0.40;;;;;;;11.89;88.69;98642.28;5047211;28;21015;-73
2022/09/27 01:35:24;;;;;;;0.50;0.30;;;;;;;11.96;88.57;98637.25;5045807;28;20489;-73
2022/09/27 01:38:11;;;;;;;2.53;0.52;;;;;;;12.00;88.26;98640.19;5054129;28;20400;-74
2022/09/27 01:40:48;;;;;;;1.33;0.40;;;;;;;12.05;87.88;98644.75;5053911;28;20413;-73
2022/09/27 01:43:30;;;;;;;1.85;0.47;;;;;;;12.11;87.55;98644.34;5054004;28;20435;-73
2022/09/27 01:46:19;;;;;;;2.40;0.70;;;;;;;12.13;87.45;98641.31;5054034;28;20455;-73
2022/09/27 01:48:47;;;;;;;1.63;0.57;;;;;;;12.03;87.31;98652.34;5048600;28;20409;-73
2022/09/27 01:51:19;;;;;;;1.50;0.50;;;;;;;11.91;87.96;98653.66;5053826;28;20397;-73
2022/09/27 01:53:51;;;;;;;2.38;0.80;;;;;;;11.94;87.84;98653.06;5053879;28;20861;-74
2022/09/27 01:56:23;;;;;;;3.20;0.60;;;;;;;11.93;88.09;98654.16;5053910;28;20400;-73
2022/09/27 01:58:55;;;;;;;1.35;0.40;;;;;;;11.97;87.94;98657.06;5061795;28;20395;-74
2022/09/27 02:01:23;;;;;;;4.00;0.80;;;;;;;11.92;87.85;98666.09;5053881;28;20370;-74
2022/09/27 02:03:50;;;;;;;1.83;0.80;;;;;;;11.92;88.03;98666.09;5035451;28;20406;-73
2022/09/27 02:06:27;;;;;;;2.45;0.70;;;;;;;11.90;88.15;98659.38;5052528;28;20396;-73
2022/09/27 02:08:57;;;;;;;0.80;0.55;;;;;;;11.89;88.35;98665.88;5053551;28;20417;-73
2022/09/27 02:11:22;;;;;;;1.67;1.00;;;;;;;11.95;88.26;98672.88;5053826;28;20393;-73
2022/09/27 02:14:03;;;;;;;1.80;0.90;;;;;;;11.91;87.94;98660.97;5053363;28;20386;-73
2022/09/27 02:16:48;;;;;;;2.60;1.30;;;;;;;11.94;87.96;98672.06;5053871;28;20804;-73
2022/09/27 02:19:41;;;;;;;6.35;1.13;;;;;;;11.98;87.96;98674.19;5053167;28;20485;-73
2022/09/27 02:22:27;;;;;;;3.47;0.90;;;;;;;12.07;87.58;98673.19;5053335;28;20843;-74
2022/09/27 02:25:10;;;;;;;2.47;0.80;;;;;;;12.09;87.17;98673.69;5035390;28;20801;-73
2022/09/27 02:27:54;;;;;;;2.08;0.75;;;;;;;12.11;87.46;98667.97;5053269;28;20741;-73
2022/09/27 02:30:19;;;;;;;2.20;0.90;;;;;;;12.10;87.20;98677.22;5052812;28;20393;-74
2022/09/27 02:32:45;;;;;;;3.90;0.90;;;;;;;12.06;87.56;98687.06;5053080;28;20381;-73
2022/09/27 02:35:18;;;;;;;4.57;0.90;;;;;;;12.01;87.75;98679.00;5053133;28;20401;-73
2022/09/27 02:37:44;;;;;;;4.05;0.88;;;;;;;11.99;87.49;98681.22;5051713;28;20389;-73
2022/09/27 02:40:10;;;;;;;4.07;1.05;;;;;;;11.99;87.62;98687.44;5052764;28;20406;-74
2022/09/27 02:42:36;;;;;;;4.35;1.20;;;;;;;12.01;87.39;98689.88;5053048;28;20844;-74
2022/09/27 02:45:04;;;;;;;5.90;1.27;;;;;;;12.02;86.96;98689.56;5052794;28;20736;-73
2022/09/27 02:47:58;;;;;;;8.15;1.60;;;;;;;11.98;87.49;98691.28;5052627;28;20425;-73
2022/09/27 02:50:51;;;;;;;5.60;1.08;;;;;;;11.95;87.31;98692.66;5065844;28;20396;-73
2022/09/27 02:53:25;;;;;;;3.67;1.45;;;;;;;12.01;87.07;98692.59;5052614;28;20396;-73
2022/09/27 02:55:55;;;;;;;9.55;2.45;;;;;;;12.02;86.74;98700.41;5052492;28;20393;-73
2022/09/27 02:58:46;;;;;;;4.63;1.20;;;;;;;12.02;86.67;98699.63;5048255;28;20756;-73
2022/09/27 03:01:26;;;;;;;6.47;1.50;;;;;;;11.93;86.65;98705.72;5034597;28;20838;-73
2022/09/27 03:03:58;;;;;;;8.13;1.45;;;;;;;11.89;86.83;98706.59;5052207;28;20460;-74
2022/09/27 03:06:24;;;;;;;7.03;1.42;;;;;;;11.85;86.94;98706.41;5052643;28;20386;-73
2022/09/27 03:08:49;;;;;;;4.90;1.33;;;;;;;11.88;87.33;98713.16;5052540;28;20409;-73
2022/09/27 03:11:15;;;;;;;5.57;1.58;;;;;;;11.86;86.42;98708.00;5052566;28;20394;-73
2022/09/27 03:13:42;;;;;;;6.50;1.53;;;;;;;11.88;86.81;98707.72;5051770;28;20405;-73
2022/09/27 03:16:07;;;;;;;6.97;2.10;;;;;;;11.88;86.69;98708.53;5035952;28;20397;-73
2022/09/27 03:18:33;;;;;;;9.67;1.50;;;;;;;11.90;86.67;98711.75;5052287;28;20400;-73
2022/09/27 03:20:58;;;;;;;9.93;1.80;;;;;;;11.88;86.44;98718.59;5052416;28;20397;-73
2022/09/27 03:23:24;;;;;;;4.60;2.00;;;;;;;11.78;87.06;98721.44;5052097;28;20425;-73
2022/09/27 03:25:49;;;;;;;7.32;2.28;;;;;;;11.81;87.11;98718.94;5052220;28;20500;-73
2022/09/27 03:28:15;;;;;;;4.30;1.90;;;;;;;11.86;86.85;98715.34;5052082;28;20745;-73
2022/09/27 03:30:41;;;;;;;8.90;1.93;;;;;;;11.87;86.75;98715.06;5052329;28;20381;-74
2022/09/27 03:33:08;;;;;;;8.27;1.80;;;;;;;11.85;86.87;98724.59;5052061;28;20787;-74
2022/09/27 03:35:33;;;;;;;7.00;1.90;;;;;;;11.85;86.85;98728.13;5051906;28;20484;-73
2022/09/27 03:37:59;;;;;;;6.63;2.07;;;;;;;11.81;87.17;98724.38;5051911;28;20468;-73
2022/09/27 03:40:24;;;;;;;8.93;2.00;;;;;;;11.86;86.97;98727.00;5033947;28;20413;-73
2022/09/27 03:42:49;;;;;;;5.53;1.80;;;;;;;11.85;86.82;98719.19;5051776;28;20389;-74
2022/09/27 03:45:16;;;;;;;7.00;1.92;;;;;;;11.84;86.82;98723.78;5051751;28;20396;-73
2022/09/27 03:47:41;;;;;;;9.27;1.92;;;;;;;11.83;86.76;98729.50;5034133;28;20895;-73
2022/09/27 03:50:08;;;;;;;7.87;2.60;;;;;;;11.76;86.71;98735.31;5051691;28;20455;-73
2022/09/27 03:52:33;;;;;;;9.02;3.40;;;;;;;11.81;87.02;98727.09;5055719;28;20409;-73
2022/09/27 03:54:59;;;;;;;7.88;2.78;;;;;;;11.86;86.71;98740.56;5051200;28;20409;-73
2022/09/27 03:57:24;;;;;;;6.17;1.97;;;;;;;11.91;86.64;98737.00;5051119;28;20389;-74
2022/09/27 03:59:50;;;;;;;7.67;2.17;;;;;;;11.95;86.42;98738.03;5050893;28;20412;-74
2022/09/27 04:02:15;;;;;;;7.75;2.35;;;;;;;11.97;86.04;98735.81;5051802;28;20385;-73
2022/09/27 04:04:40;;;;;;;7.03;1.90;;;;;;;11.94;86.39;98741.81;5039124;28;20414;-73
2022/09/27 04:07:07;;;;;;;8.33;1.80;;;;;;;11.90;86.39;98747.03;5054169;28;20405;-73
2022/09/27 04:09:32;;;;;;;4.93;1.70;;;;;;;11.77;86.12;98739.63;5050890;28;20389;-73
2022/09/27 04:11:57;;;;;;;6.78;1.83;;;;;;;11.73;86.42;98754.06;5044063;28;20396;-73
2022/09/27 04:14:23;;;;;;;6.70;1.40;;;;;;;11.77;86.54;98755.09;5066340;28;20392;-74
2022/09/27 04:16:48;;;;;;;10.47;2.37;;;;;;;11.81;86.43;98762.38;5060036;28;20966;-73
2022/09/27 04:19:13;;;;;;;5.10;1.77;;;;;;;11.80;86.31;98768.09;5051229;28;20416;-73
2022/09/27 04:21:38;;;;;;;6.40;1.60;;;;;;;11.74;86.46;98764.66;5050185;28;20477;-73
2022/09/27 04:24:04;;;;;;;7.87;1.37;;;;;;;11.68;87.21;98767.69;5051390;28;20474;-73
2022/09/27 04:26:29;;;;;;;6.07;1.67;;;;;;;11.62;87.67;98758.03;5051765;28;20397;-73
2022/09/27 04:28:55;;;;;;;6.50;1.50;;;;;;;11.62;88.06;98764.25;5041846;28;20430;-73
2022/09/27 04:31:21;;;;;;;5.07;1.27;;;;;;;11.68;87.83;98767.69;5053423;28;20777;-73
2022/09/27 04:33:46;;;;;;;7.37;1.80;;;;;;;11.75;87.65;98762.75;5060229;28;21627;-73
2022/09/27 04:36:26;;;;;;;7.72;1.63;;;;;;;11.75;87.48;98763.56;5065641;28;20410;-73
2022/09/27 04:39:10;;;;;;;5.75;1.63;;;;;;;11.72;87.20;98763.34;5049780;28;20411;-73
2022/09/27 04:41:35;;;;;;;6.43;1.50;;;;;;;11.68;87.61;98773.94;5051601;28;20409;-74
2022/09/27 04:44:01;;;;;;;9.23;1.90;;;;;;;11.72;86.89;98779.63;5052841;28;20401;-73
2022/09/27 04:46:30;;;;;;;6.90;1.60;;;;;;;11.66;86.93;98781.53;5053316;28;20401;-73
2022/09/27 04:48:59;;;;;;;6.45;1.50;;;;;;;11.66;86.95;98783.44;5058618;28;20458;-73
2022/09/27 04:51:25;;;;;;;5.40;1.40;;;;;;;11.66;86.79;98789.69;5044007;28;20425;-73
2022/09/27 04:53:51;;;;;;;4.90;1.40;;;;;;;11.62;86.63;98791.38;5041735;28;20403;-73
2022/09/27 04:56:16;;;;;;;7.35;1.55;;;;;;;11.65;86.54;98798.94;5053944;28;20393;-73
2022/09/27 04:58:42;;;;;;;5.57;1.20;;;;;;;11.70;86.79;98801.59;5053618;28;20398;-73
2022/09/27 05:01:08;;;;;;;6.25;1.27;;;;;;;11.68;86.34;98795.66;5054944;28;20382;-73
2022/09/27 05:03:34;;;;;;;2.70;1.20;;;;;;;11.60;86.41;98796.28;5054647;28;20424;-72
2022/09/27 05:05:59;;;;;;;4.35;1.13;;;;;;;11.54;86.52;98802.88;5068068;28;20395;-73
2022/09/27 05:08:25;;;;;;;5.13;1.30;;;;;;;11.53;86.57;98800.44;5053835;28;20491;-73
2022/09/27 05:10:50;;;;;;;6.37;2.40;;;;;;;11.53;86.66;98812.09;5057030;28;20413;-73
2022/09/27 05:13:17;;;;;;;7.90;1.20;;;;;;;11.53;86.69;98814.81;5054699;28;20884;-73
2022/09/27 05:15:42;;;;;;;8.25;0.95;;;;;;;11.61;86.64;98818.81;5054732;28;20390;-73
2022/09/27 05:18:08;;;;;;;4.33;1.10;;;;;;;11.63;86.10;98813.88;5054667;28;20385;-74
2022/09/27 05:20:35;;;;;;;3.73;1.37;;;;;;;11.65;85.95;98819.84;5053438;28;20447;-74
2022/09/27 05:23:00;;;;;;;3.40;1.02;;;;;;;11.65;85.67;98823.38;5057053;28;20791;-73
2022/09/27 05:25:26;;;;;;;3.00;0.87;;;;;;;11.62;85.89;98826.66;5054392;28;20393;-74
2022/09/27 05:27:51;;;;;;;3.40;1.20;;;;;;;11.58;85.94;98824.81;5054603;28;20873;-73
2022/09/27 05:30:17;;;;;;;4.57;1.33;;;;;;;11.49;86.07;98827.38;5053404;28;20432;-73
2022/09/27 05:32:44;;;;;;;4.95;2.17;;;;;;;11.46;86.30;98831.44;5054434;28;20402;-73
2022/09/27 05:35:09;;;;;;;6.22;1.80;;;;;;;11.49;86.15;98835.50;5054334;28;20389;-74
2022/09/27 05:37:35;;;;;;;3.57;1.37;;;;;;;11.46;86.20;98842.28;5035771;28;20397;-74
2022/09/27 05:40:07;;;;;;;3.60;1.10;;;;;;;11.50;86.20;98847.94;5052932;28;20888;-73
2022/09/27 05:42:34;;;;;;;3.70;1.20;;;;;;;11.45;86.18;98846.13;5053525;28;20913;-72
2022/09/27 05:45:00;;;;;;;3.13;0.90;;;;;;;11.46;86.16;98845.00;5054088;28;20390;-73
2022/09/27 05:47:25;;;;;;;4.93;0.80;;;;;;;11.54;85.89;98848.19;5053324;28;20818;-72
2022/09/27 05:49:50;;;;;;;2.38;1.00;;;;;;;11.57;85.63;98848.41;5052742;28;20417;-73
2022/09/27 05:52:16;;;;;;;2.57;0.80;;;;;;;11.52;85.28;98853.09;5053011;28;20409;-74
2022/09/27 05:54:42;;;;;;;5.53;1.30;;;;;;;11.52;85.66;98862.06;5050854;28;20469;-73
2022/09/27 05:57:07;;;;;;;1.93;0.70;;;;;;;11.59;85.27;98859.78;5053489;28;20404;-74
2022/09/27 05:59:32;;;;;;;4.77;1.40;;;;;;;11.60;85.22;98869.53;5053403;28;20409;-74
2022/09/27 06:01:57;;;;;;;2.10;0.70;;;;;;;11.60;85.28;98871.44;5052718;28;20500;-74
2022/09/27 06:04:23;;;;;;;1.93;0.63;;;;;;;11.60;85.36;98876.88;5052656;28;20413;-73
2022/09/27 06:06:48;;;;;;;1.70;0.70;;;;;;;11.56;85.41;98890.19;5053297;28;20412;-73
2022/09/27 06:09:15;;;;;;;5.53;0.70;;;;;;;11.56;85.26;98886.72;5053518;28;20401;-73
2022/09/27 06:11:42;;;;;;;1.30;0.40;;;;;;;11.54;85.42;98888.88;5053030;28;20425;-74
2022/09/27 06:14:08;;;;;;;1.73;0.32;;;;;;;11.56;85.15;98894.84;5057149;28;20394;-73
2022/09/27 06:16:33;;;;;;;1.47;0.60;;;;;;;11.50;85.11;98891.34;5053362;28;20406;-74
2022/09/27 06:18:58;;;;;;;3.00;0.40;;;;;;;11.40;85.19;98891.47;5034746;28;20405;-73
2022/09/27 06:21:24;;;;;;;2.07;0.37;;;;;;;11.36;85.22;98898.59;5052305;28;20404;-73
2022/09/27 06:23:49;;;;;;;3.10;0.50;;;;;;;11.35;85.23;98903.19;5042734;28;20412;-74
2022/09/27 06:26:15;;;;;;;1.38;0.80;;;;;;;11.35;85.20;98902.38;5053310;28;20765;-73
2022/09/27 06:28:40;;;;;;;0.80;0.70;;;;;;;11.32;85.11;98905.69;5053366;28;20476;-73
2022/09/27 06:31:10;;;;;;;2.80;0.60;;;;;;;11.34;85.03;98908.91;5053177;28;20388;-73
2022/09/27 06:33:35;;;;;;;3.40;0.80;;;;;;;11.38;85.16;98916.19;5053241;28;20468;-73
2022/09/27 06:36:02;;;;;;;0.83;0.50;;;;;;;11.31;85.06;98921.13;5053528;28;20465;-73
2022/09/27 06:38:27;;;;;;;1.80;0.47;;;;;;;11.33;84.89;98915.41;5052855;28;20389;-73
2022/09/27 06:40:53;;;;;;;1.87;0.50;;;;;;;11.32;84.53;98928.19;5053028;28;20869;-73
2022/09/27 06:43:20;;;;;;;2.08;0.80;;;;;;;11.34;84.29;98931.41;5052969;28;20788;-73
2022/09/27 06:45:46;;;;;;;0.50;0.40;;;;;;;11.30;84.59;98932.25;5051605;28;20714;-73
2022/09/27 06:48:13;;;;;;;1.20;0.22;;;;;;;11.36;84.44;98933.84;5051505;28;20424;-73
2022/09/27 06:50:43;;;;;;;1.80;0.50;;;;;;;11.38;84.02;98934.34;5039518;28;20397;-73
2022/09/27 06:53:10;;;;;;;1.80;0.50;;;;;;;11.37;84.17;98936.25;5049383;28;20399;-73
2022/09/27 06:55:36;;;;;;;2.08;0.45;;;;;;;11.42;84.04;98938.13;5050682;28;20485;-72
2022/09/27 07:00:50;;;;;;;0.52;0.40;;;;;;;11.47;83.91;98948.91;5052538;28;20416;-72
2022/09/27 07:03:15;;;;;;;7.20;0.50;;;;;;;11.51;83.39;98952.66;5052614;28;20454;-72
2022/09/27 07:05:41;;;;;;;2.27;1.10;;;;;;;11.55;83.29;98950.19;5035645;28;20776;-72
2022/09/27 07:08:10;;;;;;;0.50;0.50;;;;;;;11.59;82.79;98945.81;5052371;28;20389;-72
2022/09/27 07:10:37;;;;;;;1.45;0.40;;;;;;;11.65;82.18;98958.22;5052473;28;20390;-72
2022/09/27 07:13:07;;;;;;;1.60;0.40;;;;;;;11.59;82.53;98960.16;5052353;28;20393;-72
2022/09/27 07:15:35;;;;;;;0.50;0.40;;;;;;;11.62;82.89;98962.31;5052209;28;20429;-72
2022/09/27 07:18:00;;;;;;;1.38;0.80;;;;;;;11.64;82.53;98962.84;5038667;28;20419;-73
2022/09/27 07:20:28;;;;;;;1.40;0.40;;;;;;;11.60;82.59;98971.81;5052979;28;20443;-72
2022/09/27 07:22:53;;;;;;;8.90;0.90;;;;;;;11.57;82.88;98973.22;5059063;28;20385;-74
2022/09/27 07:25:19;;;;;;;2.70;0.40;;;;;;;11.62;82.73;98973.19;5050471;28;20417;-72
2022/09/27 07:27:44;;;;;;;1.20;0.83;;;;;;;11.64;82.48;98973.69;5050909;28;20416;-72
2022/09/27 07:30:11;;;;;;;2.80;0.53;;;;;;;11.63;82.31;98982.91;5051985;28;20389;-72
2022/09/27 07:32:36;;;;;;;1.38;0.60;;;;;;;11.68;82.49;98979.34;5051957;28;20470;-72
2022/09/27 07:35:06;;;;;;;1.80;0.50;;;;;;;11.92;82.27;98982.94;5052041;28;20469;-72
2022/09/27 07:37:32;;;;;;;1.65;0.45;;;;;;;12.12;81.46;98987.31;5051832;28;20401;-72
2022/09/27 07:39:59;;;;;;;1.60;0.80;;;;;;;12.21;81.13;98985.56;5051927;28;20562;-72
2022/09/27 07:42:24;;;;;;;2.30;0.73;;;;;;;12.28;80.44;98986.78;5051984;28;20392;-72
2022/09/27 07:44:49;;;;;;;1.73;0.60;;;;;;;12.26;80.19;98994.44;5052049;28;20385;-73
2022/09/27 07:47:15;;;;;;;1.60;0.60;;;;;;;12.20;80.05;98994.78;5051845;28;20395;-73
2022/09/27 07:49:41;;;;;;;1.30;0.50;;;;;;;12.16;80.50;99000.00;5051947;28;20393;-73
2022/09/27 07:52:06;;;;;;;0.80;0.50;;;;;;;12.10;80.72;98995.72;5049651;28;20903;-72
2022/09/27 07:54:31;;;;;;;3.80;0.73;;;;;;;12.07;80.73;99007.16;5051413;28;20385;-72
2022/09/27 07:56:56;;;;;;;1.10;0.60;;;;;;;12.03;80.83;99005.31;5054845;28;20436;-72
2022/09/27 07:59:22;;;;;;;1.07;0.57;;;;;;;12.03;80.76;99005.31;5051125;28;20502;-72
2022/09/27 08:01:47;;;;;;;2.57;0.60;;;;;;;11.99;80.85;99007.00;5051134;28;20394;-72
2022/09/27 08:04:12;;;;;;;2.13;0.67;;;;;;;12.01;80.81;98999.38;5051012;28;20416;-71
2022/09/27 08:06:37;;;;;;;2.20;0.83;;;;;;;12.05;81.18;99003.13;5031752;28;20803;-72
2022/09/27 08:09:08;;;;;;;3.17;0.97;;;;;;;12.16;80.80;98999.19;5051244;28;20394;-71
2022/09/27 08:11:34;;;;;;;3.30;0.75;;;;;;;12.23;80.42;99010.50;5051539;28;20514;-72
2022/09/27 08:14:00;;;;;;;1.60;0.68;;;;;;;12.31;79.99;99023.44;5050111;28;20753;-72
2022/09/27 08:16:25;;;;;;;3.30;0.70;;;;;;;12.34;79.56;99017.44;5051571;28;20381;-72
2022/09/27 08:18:51;;;;;;;3.27;0.90;;;;;;;12.42;79.85;99020.31;5049984;28;20389;-72
2022/09/27 08:21:16;;;;;;;3.73;0.70;;;;;;;12.52;79.14;99008.50;5050245;28;20489;-72
2022/09/27 08:23:41;;;;;;;3.10;0.67;;;;;;;12.56;78.56;99004.09;5051454;28;20389;-72
2022/09/27 08:26:07;;;;;;;2.57;1.10;;;;;;;12.54;79.00;99010.94;5033396;28;20393;-72
2022/09/27 08:28:32;;;;;;;3.13;1.00;;;;;;;12.56;79.03;99008.72;5052047;28;20443;-74
2022/09/27 08:31:00;;;;;;;0.95;0.65;;;;;;;12.77;78.32;99004.63;5050090;28;20398;-72
2022/09/27 08:33:26;;;;;;;3.28;0.80;;;;;;;12.79;77.31;99005.13;5051584;28;20381;-72
2022/09/27 08:35:51;;;;;;;2.00;0.70;;;;;;;12.79;77.41;98999.69;5051498;28;20744;-72
2022/09/27 08:38:16;;;;;;;3.90;1.10;;;;;;;12.69;77.72;99005.25;5048858;28;20444;-72
2022/09/27 08:40:48;;;;;;;1.60;0.77;;;;;;;12.63;77.66;99012.69;5051093;28;20497;-72
2022/09/27 08:43:21;;;;;;;5.13;1.05;;;;;;;12.71;77.36;99006.59;5051227;28;20401;-72
2022/09/27 08:46:08;;;;;;;1.33;0.82;;;;;;;12.97;76.95;99004.31;5049253;28;20758;-72
2022/09/27 08:48:37;;;;;;;2.30;0.88;;;;;;;12.98;76.38;99001.28;5044489;28;20447;-71
2022/09/27 08:51:05;;;;;;;2.37;1.03;;;;;;;12.85;76.70;99014.81;5047326;28;20410;-73
2022/09/27 08:53:43;;;;;;;4.40;1.25;;;;;;;12.70;76.94;99018.56;5049247;28;20394;-72
2022/09/27 08:56:10;;;;;;;3.83;1.10;;;;;;;12.62;77.07;99010.25;5042684;28;20414;-72
2022/09/27 08:58:42;;;;;;;3.80;1.48;;;;;;;12.61;77.24;99005.94;5049273;28;20896;-71
2022/09/27 09:01:15;;;;;;;6.68;1.77;;;;;;;12.67;77.33;99002.03;5050155;28;20499;-72
2022/09/27 09:03:56;;;;;;;13.95;6.50;;;;;;;12.67;77.28;98997.44;5050639;28;20414;-72
2022/09/27 09:06:27;;;;;;;3.65;1.95;;;;;;;12.68;77.12;99000.94;5035476;28;20406;-73
2022/09/27 09:08:55;;;;;;;4.65;1.50;;;;;;;12.74;77.46;99002.50;5051241;28;20378;-72
2022/09/27 09:14:55;;;;;;;4.97;1.95;;;;;;;13.41;75.57;98999.25;5044364;28;20737;-72
2022/09/27 09:17:33;;;;;;;3.38;1.80;;;;;;;13.68;73.69;99000.41;5054768;28;20903;-72
2022/09/27 09:20:03;;;;;;;3.80;1.40;;;;;;;13.76;73.34;98994.28;5053959;28;20417;-72
2022/09/27 09:22:58;;;;;;;3.90;1.02;;;;;;;13.75;72.94;99000.84;5054555;28;20393;-72
2022/09/27 09:25:39;;;;;;;1.60;1.10;;;;;;;13.74;72.62;98985.59;5054567;28;20764;-72
2022/09/27 09:28:07;;;;;;;2.63;1.00;;;;;;;13.61;73.09;98991.81;5051483;28;20434;-72
2022/09/27 09:30:47;;;;;;;2.95;1.20;;;;;;;13.40;73.21;98989.47;5053606;28;20773;-73
2022/09/27 09:33:21;;;;;;;2.20;1.30;;;;;;;13.18;74.11;98992.03;5054200;28;20401;-72
2022/09/27 09:35:49;;;;;;;3.53;1.75;;;;;;;13.07;74.64;98987.84;5052609;28;20452;-73
2022/09/27 09:38:23;;;;;;;1.83;1.10;;;;;;;13.09;74.51;98999.25;5052278;28;20401;-72
2022/09/27 09:40:59;;;;;;;4.03;1.30;;;;;;;13.06;75.27;98999.00;5051603;28;20892;-72
2022/09/27 09:43:33;;;;;;;4.80;1.40;;;;;;;12.91;75.97;98998.13;5033048;28;20435;-73
2022/09/27 09:46:11;;;;;;;4.53;1.30;;;;;;;12.82;76.76;98999.09;5051999;28;20416;-73
2022/09/27 09:48:55;;;;;;;2.40;0.90;;;;;;;12.85;77.02;98991.16;5054022;28;20472;-72
2022/09/27 09:51:26;;;;;;;3.45;1.20;;;;;;;12.79;77.86;98992.34;5053720;28;21029;-73
2022/09/27 09:54:01;;;;;;;1.98;0.93;;;;;;;12.76;78.21;98992.94;5052950;28;20424;-73
2022/09/27 09:56:33;;;;;;;3.80;1.17;;;;;;;12.77;78.89;98991.03;5049951;28;20668;-72
2022/09/27 09:59:01;;;;;;;6.13;1.30;;;;;;;12.73;78.89;98992.72;5052564;28;20401;-72
2022/09/27 10:01:38;;;;;;;2.88;1.20;;;;;;;12.76;79.44;98989.41;5053658;28;20816;-72
2022/09/27 10:04:03;;;;;;;7.25;1.55;;;;;;;12.78;79.59;98993.44;5053432;28;20405;-73
2022/09/27 10:06:30;;;;;;;2.53;1.42;;;;;;;12.70;80.08;98988.69;5052859;28;20401;-73
2022/09/27 10:08:56;;;;;;;2.28;1.25;;;;;;;12.65;80.67;98985.22;5035648;28;20807;-73
2022/09/27 10:11:25;;;;;;;3.73;1.47;;;;;;;12.62;80.76;98988.50;5054151;28;20393;-73
2022/09/27 10:13:50;;;;;;;1.60;1.20;;;;;;;12.59;81.12;98981.75;5052619;28;20504;-73
2022/09/27 10:16:18;;;;;;;2.37;1.70;;;;;;;12.60;81.62;98991.53;5034381;28;20925;-73
2022/09/27 10:18:46;;;;;;;3.58;1.90;;;;;;;12.72;81.53;98988.38;5051025;28;21085;-73
2022/09/27 10:21:18;;;;;;;3.13;1.40;;;;;;;12.93;81.09;98986.97;5050771;28;20630;-73
2022/09/27 10:24:13;;;;;;;3.80;1.85;;;;;;;13.26;80.38;98985.09;5053096;28;20396;-73
2022/09/27 10:26:42;;;;;;;4.47;1.88;;;;;;;13.27;79.94;98981.28;5051838;28;20480;-72
2022/09/27 10:29:19;;;;;;;4.70;2.55;;;;;;;12.88;80.10;98995.19;5051641;28;20899;-73
2022/09/27 10:31:47;;;;;;;7.85;2.67;;;;;;;12.63;81.33;99012.69;5050708;28;20416;-72
2022/09/27 10:34:31;;;;;;;3.30;1.38;;;;;;;12.45;82.22;99024.34;5050387;28;20393;-72
2022/09/27 10:37:16;;;;;;;5.00;0.82;;;;;;;12.17;81.47;99011.66;5050519;28;20390;-73
2022/09/27 10:39:43;;;;;;;2.47;0.73;;;;;;;11.89;82.12;99005.19;5038976;28;20496;-72
2022/09/27 10:42:34;;;;;;;1.25;0.60;;;;;;;11.68;82.69;98995.63;5051728;28;20428;-73
2022/09/27 10:45:21;;;;;;;0.52;0.30;;;;;;;11.69;83.27;98986.41;5052977;28;20404;-73
2022/09/27 10:47:46;;;;;;;0.63;0.20;;;;;;;11.62;83.34;99002.22;5052702;28;20397;-73
2022/09/27 10:50:24;;;;;;;1.83;0.10;;;;;;;11.48;83.26;98987.69;5051616;28;20531;-73
2022/09/27 10:53:02;;;;;;;1.20;0.30;;;;;;;11.24;82.56;98987.63;5049168;28;20412;-73
2022/09/27 10:55:31;;;;;;;1.70;0.53;;;;;;;11.18;83.40;98983.34;5029379;28;20495;-73
2022/09/27 10:57:56;;;;;;;0.90;0.43;;;;;;;11.21;83.20;98972.75;5049554;28;20397;-73
2022/09/27 11:00:23;;;;;;;1.50;0.20;;;;;;;11.22;82.84;98957.28;5049872;28;20428;-73
2022/09/27 11:02:56;;;;;;;1.17;0.20;;;;;;;11.25;82.42;98960.25;5051746;28;20880;-73
2022/09/27 11:05:26;;;;;;;1.13;0.43;;;;;;;11.34;82.52;98963.94;5050675;28;20457;-73
2022/09/27 11:07:54;;;;;;;0.53;0.17;;;;;;;11.33;82.09;98954.19;5052555;28;20393;-73
2022/09/27 11:10:27;;;;;;;0.52;0.20;;;;;;;11.31;81.88;98969.94;5051684;28;20420;-72
2022/09/27 11:13:11;;;;;;;1.33;0.20;;;;;;;11.28;82.24;98975.94;5050130;28;20779;-73
2022/09/27 11:15:47;;;;;;;1.70;0.20;;;;;;;11.23;81.71;98981.41;5050023;28;20429;-73
2022/09/27 11:18:43;;;;;;;1.70;0.20;;;;;;;11.30;82.12;98981.06;5051596;28;20839;-73
2022/09/27 11:21:28;;;;;;;0.50;0.25;;;;;;;11.23;82.25;98986.81;5028537;28;20401;-73
2022/09/27 11:24:10;;;;;;;0.70;0.30;;;;;;;11.15;82.79;98992.06;5045677;28;21194;-73
2022/09/27 11:26:48;;;;;;;1.30;0.30;;;;;;;11.11;82.95;98980.97;5042797;28;20393;-73
2022/09/27 11:29:30;;;;;;;0.90;0.35;;;;;;;11.06;83.09;98996.47;5051402;28;20946;-73
2022/09/27 11:32:17;;;;;;;0.50;0.40;;;;;;;10.90;83.34;98995.75;5050299;28;20495;-73
2022/09/27 11:34:57;;;;;;;1.80;0.40;;;;;;;10.91;84.08;98991.97;5051724;28;20520;-73
2022/09/27 11:37:41;;;;;;;1.90;0.40;;;;;;;10.89;84.04;98986.84;5051095;28;20494;-73
2022/09/27 11:40:18;;;;;;;1.80;0.45;;;;;;;10.87;84.26;98977.34;5051348;28;20413;-73
2022/09/27 11:43:17;;;;;;;1.13;0.50;;;;;;;10.88;84.56;98976.28;5049584;28;20406;-73
2022/09/27 11:45:53;;;;;;;1.13;0.40;;;;;;;10.91;84.20;98962.16;5049373;28;20436;-73
2022/09/27 11:48:37;;;;;;;2.65;0.38;;;;;;;11.04;83.60;98961.50;5042807;28;20460;-73
2022/09/27 11:51:42;;;;;;;1.48;0.40;;;;;;;11.18;83.43;98943.50;5050047;28;20429;-73
2022/09/27 11:54:29;;;;;;;0.80;0.40;;;;;;;11.43;83.22;98942.44;5046024;28;20408;-73
2022/09/27 11:57:17;;;;;;;2.50;0.80;;;;;;;11.59;82.07;98943.09;5048641;28;20420;-73